Сообщение об ошибке

  • Warning: ini_set(): Headers already sent. You cannot change the session module's ini settings at this time in drupal_environment_initialize() (line 699 of /home/a/auditpro/2.auditpro.beget.tech/public_html/st/includes/bootstrap.inc).
  • Warning: ini_set(): Headers already sent. You cannot change the session module's ini settings at this time in drupal_environment_initialize() (line 700 of /home/a/auditpro/2.auditpro.beget.tech/public_html/st/includes/bootstrap.inc).
  • Warning: ini_set(): Headers already sent. You cannot change the session module's ini settings at this time in drupal_environment_initialize() (line 701 of /home/a/auditpro/2.auditpro.beget.tech/public_html/st/includes/bootstrap.inc).
  • Warning: ini_set(): Headers already sent. You cannot change the session module's ini settings at this time in drupal_environment_initialize() (line 704 of /home/a/auditpro/2.auditpro.beget.tech/public_html/st/includes/bootstrap.inc).
  • Warning: ini_set(): Headers already sent. You cannot change the session module's ini settings at this time in drupal_environment_initialize() (line 706 of /home/a/auditpro/2.auditpro.beget.tech/public_html/st/includes/bootstrap.inc).
  • Warning: ini_set(): Headers already sent. You cannot change the session module's ini settings at this time in include_once() (line 290 of /home/a/auditpro/2.auditpro.beget.tech/public_html/st/sites/default/settings.php).
  • Warning: ini_set(): Headers already sent. You cannot change the session module's ini settings at this time in include_once() (line 291 of /home/a/auditpro/2.auditpro.beget.tech/public_html/st/sites/default/settings.php).
  • Warning: ini_set(): Headers already sent. You cannot change the session module's ini settings at this time in include_once() (line 299 of /home/a/auditpro/2.auditpro.beget.tech/public_html/st/sites/default/settings.php).
  • Warning: ini_set(): Headers already sent. You cannot change the session module's ini settings at this time in include_once() (line 306 of /home/a/auditpro/2.auditpro.beget.tech/public_html/st/sites/default/settings.php).
  • Warning: ini_set(): Headers already sent. You cannot change the session module's ini settings at this time in drupal_settings_initialize() (line 826 of /home/a/auditpro/2.auditpro.beget.tech/public_html/st/includes/bootstrap.inc).
  • Warning: ini_set(): Headers already sent. You cannot change the session module's ini settings at this time in drupal_settings_initialize() (line 835 of /home/a/auditpro/2.auditpro.beget.tech/public_html/st/includes/bootstrap.inc).
  • Warning: session_name(): Cannot change session name when headers already sent in drupal_settings_initialize() (line 838 of /home/a/auditpro/2.auditpro.beget.tech/public_html/st/includes/bootstrap.inc).

Громашовка

СКИДКИ НА СМАРТФОНЫ!

Карта отелей и гостиниц, располагающихся рядом с аэропортом Громашовка :

Громашовка Курская область 52° 9' 55.5588" N, 35° 26' 17.4012" E
Громашовка Курская область 52° 9' 55.5588" N, 35° 26' 17.4012" E
Код аэродрома ИКАО
ZAH3
Код аэродрома RU
ЗАХ3
Координаты
N52.16543° E035.43817°
Превышение над уровнем моря
180
Основная полоса
04/22
Курс магнитный
044/224
Длина основной ВПП
420
Ширина основной ВПП
18
Покрытие основной ВПП
Твёрдое (асфальт)
Освещение ВПП
Нет
Тип: 
Аэродром
Класс аэродрома: 
Принадлежность: 
ГА
Статус: 
Недействующий
Сайт: 
E-mail аэродрома: 
Страна: 
Россия
Регион: 
Курская область
Город: 
Дополнительная информация: 
Площадка АХР.

Скидки на навигаторы!

Найти трансфер

С помощью этой формы Вы можете найти трансфер из аэропорта Громашовка в город, аэропорт или вокзал:

Погода в аэропортах:

Авиационная погода в Богашево

Регион: 
Погода METAR: 
UNTT 301930Z 23005MPS 9999 -SN BKN016 M10/M12 Q1027 R21/////// NOSIG RMK QFE755
Время наблюдения
2023-01-30T19:30:00Z
Температура C
-10.0
Точка росы
-12.0
Направление ветра
230
Скорость ветра (узлы)
10
Метео видимость
6.21
Облачность
BKN
Нижняя граница облачности (футы)
1600
Явления погоды
-SN
Условия полета
MVFR
Аэропорт подробнее: 
BKN – значительная (рассеянная, разорванная) облачность;
-SN – слабый снег;

Авиационная погода в Куусамо

Регион: 
Погода METAR: 
EFKS 301920Z 02007KT 9999 -SN OVC006 M03/M04 Q0971
Время наблюдения
2023-01-30T19:20:00Z
Температура C
-3.0
Точка росы
-4.0
Направление ветра
20
Скорость ветра (узлы)
7
Метео видимость
6.21
Облачность
OVC
Нижняя граница облачности (футы)
600
Явления погоды
-SN
Условия полета
IFR
OVC – сплошная облачность;
-SN – слабый снег;

Авиационная погода в Астане

Регион: 
Погода METAR: 
UACC 301930Z 10002MPS 060V130 2200 BR NSC M24/M27 Q1024 TEMPO 1000 BR RMK QFE736/0982
Время наблюдения
2023-01-30T19:30:00Z
Температура C
-24.0
Точка росы
-27.0
Направление ветра
100
Скорость ветра (узлы)
4
Метео видимость
1.37
Облачность
CLR
Нижняя граница облачности (футы)
Явления погоды
BR
Условия полета
IFR
Аэропорт подробнее: 
CLR — нет облаков ниже 3000 м
BR – дымка (видимость от 1 до 9 км);

Авиационная погода в Ургенче

Регион: 
Погода METAR: 
UTNU 301930Z 08004KT 4200 BR NSC 01/M07 Q1018 R31/CLRD70 NOSIG
Время наблюдения
2023-01-30T19:30:00Z
Температура C
1.0
Точка росы
-7.0
Направление ветра
80
Скорость ветра (узлы)
4
Метео видимость
2.61
Облачность
CLR
Нижняя граница облачности (футы)
Явления погоды
BR
Условия полета
IFR
CLR — нет облаков ниже 3000 м
BR – дымка (видимость от 1 до 9 км);